sensor_id;sensor_type;location;lat;lon;timestamp;P1;durP1;ratioP1;P2;durP2;ratioP2
63016;SDS011;50274;45.640;11.756;2023-04-15T00:01:23;6.87;;;2.83;;
63016;SDS011;50274;45.640;11.756;2023-04-15T00:03:50;5.85;;;2.65;;
63016;SDS011;50274;45.640;11.756;2023-04-15T00:06:17;6.43;;;3.00;;
63016;SDS011;50274;45.640;11.756;2023-04-15T00:08:46;6.25;;;2.63;;
63016;SDS011;50274;45.640;11.756;2023-04-15T00:11:13;6.75;;;2.95;;
63016;SDS011;50274;45.640;11.756;2023-04-15T00:13:39;5.27;;;2.97;;
63016;SDS011;50274;45.640;11.756;2023-04-15T00:16:06;5.25;;;2.70;;
63016;SDS011;50274;45.640;11.756;2023-04-15T00:18:35;4.88;;;2.28;;
63016;SDS011;50274;45.640;11.756;2023-04-15T00:21:01;7.03;;;2.95;;
63016;SDS011;50274;45.640;11.756;2023-04-15T00:23:28;5.57;;;2.55;;
63016;SDS011;50274;45.640;11.756;2023-04-15T00:25:54;5.43;;;2.47;;
63016;SDS011;50274;45.640;11.756;2023-04-15T00:28:20;5.22;;;2.20;;
63016;SDS011;50274;45.640;11.756;2023-04-15T00:30:46;5.10;;;2.50;;
63016;SDS011;50274;45.640;11.756;2023-04-15T00:33:13;6.57;;;2.67;;
63016;SDS011;50274;45.640;11.756;2023-04-15T00:35:40;6.90;;;2.60;;
63016;SDS011;50274;45.640;11.756;2023-04-15T00:38:06;6.40;;;3.05;;
63016;SDS011;50274;45.640;11.756;2023-04-15T00:40:32;5.53;;;2.90;;
63016;SDS011;50274;45.640;11.756;2023-04-15T00:42:59;6.55;;;3.08;;
63016;SDS011;50274;45.640;11.756;2023-04-15T00:45:25;6.90;;;3.57;;
63016;SDS011;50274;45.640;11.756;2023-04-15T00:47:54;7.47;;;4.15;;
63016;SDS011;50274;45.640;11.756;2023-04-15T00:50:21;5.95;;;3.05;;
63016;SDS011;50274;45.640;11.756;2023-04-15T00:52:47;8.15;;;4.28;;
63016;SDS011;50274;45.640;11.756;2023-04-15T00:55:12;6.18;;;3.63;;
63016;SDS011;50274;45.640;11.756;2023-04-15T00:57:39;9.13;;;4.13;;
63016;SDS011;50274;45.640;11.756;2023-04-15T01:00:05;6.80;;;3.28;;
63016;SDS011;50274;45.640;11.756;2023-04-15T01:02:36;6.80;;;2.90;;
63016;SDS011;50274;45.640;11.756;2023-04-15T01:05:03;6.00;;;3.28;;
63016;SDS011;50274;45.640;11.756;2023-04-15T01:07:29;6.10;;;3.10;;
63016;SDS011;50274;45.640;11.756;2023-04-15T01:09:55;6.30;;;3.03;;
63016;SDS011;50274;45.640;11.756;2023-04-15T01:12:22;5.57;;;2.90;;
63016;SDS011;50274;45.640;11.756;2023-04-15T01:14:50;5.93;;;2.88;;
63016;SDS011;50274;45.640;11.756;2023-04-15T01:17:17;7.70;;;2.97;;
63016;SDS011;50274;45.640;11.756;2023-04-15T01:19:43;6.10;;;3.13;;
63016;SDS011;50274;45.640;11.756;2023-04-15T01:22:09;4.43;;;2.27;;
63016;SDS011;50274;45.640;11.756;2023-04-15T01:24:35;6.55;;;2.85;;
63016;SDS011;50274;45.640;11.756;2023-04-15T01:27:01;5.45;;;2.70;;
63016;SDS011;50274;45.640;11.756;2023-04-15T01:29:29;5.25;;;2.70;;
63016;SDS011;50274;45.640;11.756;2023-04-15T01:31:56;6.05;;;2.88;;
63016;SDS011;50274;45.640;11.756;2023-04-15T01:34:22;7.27;;;3.20;;
63016;SDS011;50274;45.640;11.756;2023-04-15T01:36:48;8.55;;;3.00;;
63016;SDS011;50274;45.640;11.756;2023-04-15T01:39:14;6.25;;;2.58;;
63016;SDS011;50274;45.640;11.756;2023-04-15T01:41:40;5.83;;;2.60;;
63016;SDS011;50274;45.640;11.756;2023-04-15T01:44:06;6.72;;;2.83;;
63016;SDS011;50274;45.640;11.756;2023-04-15T01:46:32;7.72;;;2.67;;
63016;SDS011;50274;45.640;11.756;2023-04-15T01:48:58;5.22;;;2.22;;
63016;SDS011;50274;45.640;11.756;2023-04-15T01:51:24;5.90;;;2.60;;
63016;SDS011;50274;45.640;11.756;2023-04-15T01:53:51;5.38;;;2.50;;
63016;SDS011;50274;45.640;11.756;2023-04-15T01:56:17;5.72;;;2.78;;
63016;SDS011;50274;45.640;11.756;2023-04-15T01:58:43;5.65;;;2.70;;
63016;SDS011;50274;45.640;11.756;2023-04-15T02:01:08;7.63;;;2.50;;
63016;SDS011;50274;45.640;11.756;2023-04-15T02:03:35;6.18;;;2.53;;
63016;SDS011;50274;45.640;11.756;2023-04-15T02:06:02;7.25;;;3.05;;
63016;SDS011;50274;45.640;11.756;2023-04-15T02:08:28;6.97;;;3.40;;
63016;SDS011;50274;45.640;11.756;2023-04-15T02:10:54;8.87;;;3.10;;
63016;SDS011;50274;45.640;11.756;2023-04-15T02:13:20;7.32;;;4.30;;
63016;SDS011;50274;45.640;11.756;2023-04-15T02:15:47;8.82;;;4.97;;
63016;SDS011;50274;45.640;11.756;2023-04-15T02:18:14;7.88;;;4.13;;
63016;SDS011;50274;45.640;11.756;2023-04-15T02:20:40;8.03;;;3.83;;
63016;SDS011;50274;45.640;11.756;2023-04-15T02:23:07;7.82;;;3.80;;
63016;SDS011;50274;45.640;11.756;2023-04-15T02:25:35;6.00;;;3.17;;
63016;SDS011;50274;45.640;11.756;2023-04-15T02:28:01;6.13;;;3.13;;
63016;SDS011;50274;45.640;11.756;2023-04-15T02:30:27;7.33;;;2.80;;
63016;SDS011;50274;45.640;11.756;2023-04-15T02:32:53;6.88;;;2.83;;
63016;SDS011;50274;45.640;11.756;2023-04-15T02:35:19;5.28;;;2.40;;
63016;SDS011;50274;45.640;11.756;2023-04-15T02:37:45;7.20;;;2.58;;
63016;SDS011;50274;45.640;11.756;2023-04-15T02:40:11;5.17;;;1.87;;
63016;SDS011;50274;45.640;11.756;2023-04-15T02:42:38;5.40;;;2.00;;
63016;SDS011;50274;45.640;11.756;2023-04-15T02:45:04;5.18;;;1.80;;
63016;SDS011;50274;45.640;11.756;2023-04-15T02:47:32;4.53;;;1.88;;
63016;SDS011;50274;45.640;11.756;2023-04-15T02:49:58;4.07;;;1.73;;
63016;SDS011;50274;45.640;11.756;2023-04-15T02:52:25;4.85;;;1.80;;
63016;SDS011;50274;45.640;11.756;2023-04-15T02:54:51;5.47;;;1.92;;
63016;SDS011;50274;45.640;11.756;2023-04-15T02:57:21;5.63;;;1.70;;
63016;SDS011;50274;45.640;11.756;2023-04-15T02:59:47;4.97;;;1.87;;
63016;SDS011;50274;45.640;11.756;2023-04-15T03:02:13;4.40;;;1.80;;
63016;SDS011;50274;45.640;11.756;2023-04-15T03:04:39;4.32;;;1.70;;
63016;SDS011;50274;45.640;11.756;2023-04-15T03:07:05;3.73;;;1.43;;
63016;SDS011;50274;45.640;11.756;2023-04-15T03:09:30;4.13;;;1.55;;
63016;SDS011;50274;45.640;11.756;2023-04-15T03:11:57;3.92;;;1.48;;
63016;SDS011;50274;45.640;11.756;2023-04-15T03:14:22;3.60;;;1.20;;
63016;SDS011;50274;45.640;11.756;2023-04-15T03:16:48;3.97;;;1.40;;
63016;SDS011;50274;45.640;11.756;2023-04-15T03:19:15;3.60;;;1.23;;
63016;SDS011;50274;45.640;11.756;2023-04-15T03:21:41;4.47;;;1.67;;
63016;SDS011;50274;45.640;11.756;2023-04-15T03:24:07;3.70;;;1.20;;
63016;SDS011;50274;45.640;11.756;2023-04-15T03:26:33;4.57;;;1.60;;
63016;SDS011;50274;45.640;11.756;2023-04-15T03:28:59;3.37;;;1.20;;
63016;SDS011;50274;45.640;11.756;2023-04-15T03:31:25;3.70;;;1.15;;
63016;SDS011;50274;45.640;11.756;2023-04-15T03:33:51;4.03;;;1.30;;
63016;SDS011;50274;45.640;11.756;2023-04-15T03:36:17;4.03;;;1.47;;
63016;SDS011;50274;45.640;11.756;2023-04-15T03:38:43;3.97;;;1.40;;
63016;SDS011;50274;45.640;11.756;2023-04-15T03:41:09;3.60;;;1.00;;
63016;SDS011;50274;45.640;11.756;2023-04-15T03:43:34;4.30;;;1.17;;
63016;SDS011;50274;45.640;11.756;2023-04-15T03:46:00;3.83;;;1.20;;
63016;SDS011;50274;45.640;11.756;2023-04-15T03:48:26;7.70;;;1.50;;
63016;SDS011;50274;45.640;11.756;2023-04-15T03:50:52;3.80;;;1.35;;
63016;SDS011;50274;45.640;11.756;2023-04-15T03:53:19;4.00;;;1.13;;
63016;SDS011;50274;45.640;11.756;2023-04-15T03:55:45;3.25;;;1.00;;
63016;SDS011;50274;45.640;11.756;2023-04-15T03:58:11;3.80;;;1.20;;
63016;SDS011;50274;45.640;11.756;2023-04-15T04:00:38;3.80;;;1.50;;
63016;SDS011;50274;45.640;11.756;2023-04-15T04:03:05;3.60;;;1.20;;
63016;SDS011;50274;45.640;11.756;2023-04-15T04:05:31;4.40;;;1.42;;
63016;SDS011;50274;45.640;11.756;2023-04-15T04:07:57;4.17;;;1.20;;
63016;SDS011;50274;45.640;11.756;2023-04-15T04:10:22;3.92;;;1.30;;
63016;SDS011;50274;45.640;11.756;2023-04-15T04:12:48;4.10;;;1.23;;
63016;SDS011;50274;45.640;11.756;2023-04-15T04:15:14;3.93;;;1.30;;
63016;SDS011;50274;45.640;11.756;2023-04-15T04:17:40;3.88;;;1.10;;
63016;SDS011;50274;45.640;11.756;2023-04-15T04:20:06;3.88;;;1.20;;
63016;SDS011;50274;45.640;11.756;2023-04-15T04:22:36;3.90;;;1.27;;
63016;SDS011;50274;45.640;11.756;2023-04-15T04:25:03;4.43;;;1.48;;
63016;SDS011;50274;45.640;11.756;2023-04-15T04:27:30;4.05;;;1.40;;
63016;SDS011;50274;45.640;11.756;2023-04-15T04:29:55;4.50;;;1.60;;
63016;SDS011;50274;45.640;11.756;2023-04-15T04:32:21;4.30;;;1.80;;
63016;SDS011;50274;45.640;11.756;2023-04-15T04:34:47;4.38;;;1.65;;
63016;SDS011;50274;45.640;11.756;2023-04-15T04:37:13;4.33;;;1.50;;
63016;SDS011;50274;45.640;11.756;2023-04-15T04:39:39;4.75;;;1.73;;
63016;SDS011;50274;45.640;11.756;2023-04-15T04:42:04;4.82;;;1.90;;
63016;SDS011;50274;45.640;11.756;2023-04-15T04:44:30;4.43;;;1.67;;
63016;SDS011;50274;45.640;11.756;2023-04-15T04:46:56;5.28;;;2.33;;
63016;SDS011;50274;45.640;11.756;2023-04-15T04:49:22;5.20;;;2.28;;
63016;SDS011;50274;45.640;11.756;2023-04-15T04:51:48;4.67;;;1.90;;
63016;SDS011;50274;45.640;11.756;2023-04-15T04:54:14;5.22;;;2.05;;
63016;SDS011;50274;45.640;11.756;2023-04-15T04:56:40;4.90;;;2.20;;
63016;SDS011;50274;45.640;11.756;2023-04-15T04:59:06;5.23;;;2.23;;
63016;SDS011;50274;45.640;11.756;2023-04-15T05:01:31;4.68;;;1.90;;
63016;SDS011;50274;45.640;11.756;2023-04-15T05:03:58;4.13;;;1.90;;
63016;SDS011;50274;45.640;11.756;2023-04-15T05:06:24;5.17;;;2.43;;
63016;SDS011;50274;45.640;11.756;2023-04-15T05:08:50;5.43;;;2.30;;
63016;SDS011;50274;45.640;11.756;2023-04-15T05:11:16;5.22;;;2.28;;
63016;SDS011;50274;45.640;11.756;2023-04-15T05:13:42;5.23;;;2.30;;
63016;SDS011;50274;45.640;11.756;2023-04-15T05:16:07;5.57;;;2.22;;
63016;SDS011;50274;45.640;11.756;2023-04-15T05:18:33;5.13;;;2.10;;
63016;SDS011;50274;45.640;11.756;2023-04-15T05:20:59;5.00;;;2.30;;
63016;SDS011;50274;45.640;11.756;2023-04-15T05:23:26;5.72;;;2.22;;
63016;SDS011;50274;45.640;11.756;2023-04-15T05:25:52;7.00;;;2.13;;
63016;SDS011;50274;45.640;11.756;2023-04-15T05:28:18;4.28;;;2.00;;
63016;SDS011;50274;45.640;11.756;2023-04-15T05:30:44;5.07;;;2.20;;
63016;SDS011;50274;45.640;11.756;2023-04-15T05:33:10;5.65;;;2.45;;
63016;SDS011;50274;45.640;11.756;2023-04-15T05:35:36;5.23;;;2.17;;
63016;SDS011;50274;45.640;11.756;2023-04-15T05:38:02;5.07;;;2.20;;
63016;SDS011;50274;45.640;11.756;2023-04-15T05:40:28;5.45;;;2.40;;
63016;SDS011;50274;45.640;11.756;2023-04-15T05:42:54;6.55;;;2.50;;
63016;SDS011;50274;45.640;11.756;2023-04-15T05:45:20;8.03;;;2.37;;
63016;SDS011;50274;45.640;11.756;2023-04-15T05:47:46;5.35;;;2.42;;
63016;SDS011;50274;45.640;11.756;2023-04-15T05:50:14;7.95;;;3.60;;
63016;SDS011;50274;45.640;11.756;2023-04-15T05:52:40;6.87;;;2.83;;
63016;SDS011;50274;45.640;11.756;2023-04-15T05:55:06;6.07;;;3.13;;
63016;SDS011;50274;45.640;11.756;2023-04-15T05:57:33;7.93;;;4.22;;
63016;SDS011;50274;45.640;11.756;2023-04-15T05:59:58;6.97;;;3.30;;
63016;SDS011;50274;45.640;11.756;2023-04-15T06:02:24;8.73;;;4.10;;
63016;SDS011;50274;45.640;11.756;2023-04-15T06:04:50;8.02;;;4.15;;
63016;SDS011;50274;45.640;11.756;2023-04-15T06:07:16;8.13;;;3.73;;
63016;SDS011;50274;45.640;11.756;2023-04-15T06:09:42;6.85;;;3.70;;
63016;SDS011;50274;45.640;11.756;2023-04-15T06:12:08;8.45;;;4.35;;
63016;SDS011;50274;45.640;11.756;2023-04-15T06:14:36;8.48;;;4.85;;
63016;SDS011;50274;45.640;11.756;2023-04-15T06:17:03;8.30;;;4.13;;
63016;SDS011;50274;45.640;11.756;2023-04-15T06:19:29;8.68;;;4.95;;
63016;SDS011;50274;45.640;11.756;2023-04-15T06:21:56;10.00;;;4.50;;
63016;SDS011;50274;45.640;11.756;2023-04-15T06:24:22;9.63;;;5.05;;
63016;SDS011;50274;45.640;11.756;2023-04-15T06:26:48;10.13;;;5.80;;
63016;SDS011;50274;45.640;11.756;2023-04-15T06:29:14;7.93;;;4.85;;
63016;SDS011;50274;45.640;11.756;2023-04-15T06:31:40;8.02;;;4.40;;
63016;SDS011;50274;45.640;11.756;2023-04-15T06:34:06;7.80;;;4.07;;
63016;SDS011;50274;45.640;11.756;2023-04-15T06:36:32;8.98;;;5.13;;
63016;SDS011;50274;45.640;11.756;2023-04-15T06:38:58;8.63;;;5.07;;
63016;SDS011;50274;45.640;11.756;2023-04-15T06:41:24;9.43;;;4.53;;
63016;SDS011;50274;45.640;11.756;2023-04-15T06:43:50;7.43;;;4.57;;
63016;SDS011;50274;45.640;11.756;2023-04-15T06:46:15;11.03;;;4.63;;
63016;SDS011;50274;45.640;11.756;2023-04-15T06:48:42;8.85;;;5.03;;
63016;SDS011;50274;45.640;11.756;2023-04-15T06:51:08;10.38;;;5.10;;
63016;SDS011;50274;45.640;11.756;2023-04-15T06:53:34;9.45;;;4.97;;
63016;SDS011;50274;45.640;11.756;2023-04-15T06:56:05;8.53;;;4.70;;
63016;SDS011;50274;45.640;11.756;2023-04-15T06:58:32;6.75;;;4.20;;
63016;SDS011;50274;45.640;11.756;2023-04-15T07:00:57;8.70;;;5.07;;
63016;SDS011;50274;45.640;11.756;2023-04-15T07:03:23;10.03;;;4.40;;
63016;SDS011;50274;45.640;11.756;2023-04-15T07:05:49;7.97;;;4.65;;
63016;SDS011;50274;45.640;11.756;2023-04-15T07:08:15;7.72;;;4.43;;
63016;SDS011;50274;45.640;11.756;2023-04-15T07:10:41;7.87;;;4.83;;
63016;SDS011;50274;45.640;11.756;2023-04-15T07:13:06;11.45;;;4.63;;
63016;SDS011;50274;45.640;11.756;2023-04-15T07:15:33;9.23;;;5.00;;
63016;SDS011;50274;45.640;11.756;2023-04-15T07:17:58;8.73;;;4.07;;
63016;SDS011;50274;45.640;11.756;2023-04-15T07:20:24;7.80;;;4.05;;
63016;SDS011;50274;45.640;11.756;2023-04-15T07:22:51;9.00;;;3.90;;
63016;SDS011;50274;45.640;11.756;2023-04-15T07:25:17;7.10;;;3.63;;
63016;SDS011;50274;45.640;11.756;2023-04-15T07:27:43;7.27;;;3.73;;
63016;SDS011;50274;45.640;11.756;2023-04-15T07:30:09;6.82;;;3.70;;
63016;SDS011;50274;45.640;11.756;2023-04-15T07:32:36;6.50;;;3.80;;
63016;SDS011;50274;45.640;11.756;2023-04-15T07:35:02;8.63;;;3.65;;
63016;SDS011;50274;45.640;11.756;2023-04-15T07:37:28;7.25;;;3.28;;
63016;SDS011;50274;45.640;11.756;2023-04-15T07:39:54;7.77;;;4.27;;
63016;SDS011;50274;45.640;11.756;2023-04-15T07:42:20;7.63;;;3.67;;
63016;SDS011;50274;45.640;11.756;2023-04-15T07:44:46;7.20;;;3.45;;
63016;SDS011;50274;45.640;11.756;2023-04-15T07:47:12;7.00;;;3.40;;
63016;SDS011;50274;45.640;11.756;2023-04-15T07:49:38;7.18;;;3.53;;
63016;SDS011;50274;45.640;11.756;2023-04-15T07:52:03;11.30;;;3.43;;
63016;SDS011;50274;45.640;11.756;2023-04-15T07:54:30;6.57;;;3.40;;
63016;SDS011;50274;45.640;11.756;2023-04-15T07:56:56;8.45;;;3.58;;
63016;SDS011;50274;45.640;11.756;2023-04-15T07:59:23;8.10;;;3.55;;
63016;SDS011;50274;45.640;11.756;2023-04-15T08:01:48;8.73;;;3.03;;
63016;SDS011;50274;45.640;11.756;2023-04-15T08:04:14;6.57;;;2.83;;
63016;SDS011;50274;45.640;11.756;2023-04-15T08:06:41;5.95;;;3.00;;
63016;SDS011;50274;45.640;11.756;2023-04-15T08:09:09;6.13;;;3.17;;
63016;SDS011;50274;45.640;11.756;2023-04-15T08:11:37;5.78;;;2.50;;
63016;SDS011;50274;45.640;11.756;2023-04-15T08:14:05;5.68;;;2.88;;
63016;SDS011;50274;45.640;11.756;2023-04-15T08:16:31;5.65;;;2.80;;
63016;SDS011;50274;45.640;11.756;2023-04-15T08:18:57;5.83;;;2.93;;
63016;SDS011;50274;45.640;11.756;2023-04-15T08:21:23;6.05;;;3.10;;
63016;SDS011;50274;45.640;11.756;2023-04-15T08:23:52;6.53;;;3.55;;
63016;SDS011;50274;45.640;11.756;2023-04-15T08:26:23;6.88;;;3.38;;
63016;SDS011;50274;45.640;11.756;2023-04-15T08:28:52;6.30;;;3.10;;
63016;SDS011;50274;45.640;11.756;2023-04-15T08:31:21;9.55;;;3.35;;
63016;SDS011;50274;45.640;11.756;2023-04-15T08:33:50;5.53;;;2.85;;
63016;SDS011;50274;45.640;11.756;2023-04-15T08:36:16;6.20;;;2.83;;
63016;SDS011;50274;45.640;11.756;2023-04-15T08:38:43;6.55;;;3.10;;
63016;SDS011;50274;45.640;11.756;2023-04-15T08:41:22;7.87;;;3.10;;
63016;SDS011;50274;45.640;11.756;2023-04-15T08:43:56;9.25;;;3.35;;
63016;SDS011;50274;45.640;11.756;2023-04-15T08:46:25;7.82;;;3.00;;
63016;SDS011;50274;45.640;11.756;2023-04-15T08:48:51;6.95;;;2.90;;
63016;SDS011;50274;45.640;11.756;2023-04-15T08:51:21;5.90;;;2.53;;
63016;SDS011;50274;45.640;11.756;2023-04-15T08:53:47;6.43;;;2.53;;
63016;SDS011;50274;45.640;11.756;2023-04-15T08:56:15;6.07;;;2.67;;
63016;SDS011;50274;45.640;11.756;2023-04-15T08:58:45;6.05;;;2.65;;
63016;SDS011;50274;45.640;11.756;2023-04-15T09:01:12;7.95;;;2.40;;
63016;SDS011;50274;45.640;11.756;2023-04-15T09:03:40;5.65;;;2.60;;
63016;SDS011;50274;45.640;11.756;2023-04-15T09:06:09;6.13;;;2.53;;
63016;SDS011;50274;45.640;11.756;2023-04-15T09:08:35;5.07;;;2.70;;
63016;SDS011;50274;45.640;11.756;2023-04-15T09:11:06;9.10;;;3.05;;
63016;SDS011;50274;45.640;11.756;2023-04-15T09:13:34;7.38;;;3.15;;
63016;SDS011;50274;45.640;11.756;2023-04-15T09:16:01;8.13;;;3.00;;
63016;SDS011;50274;45.640;11.756;2023-04-15T09:18:31;7.00;;;2.43;;
63016;SDS011;50274;45.640;11.756;2023-04-15T09:21:05;6.00;;;2.92;;
63016;SDS011;50274;45.640;11.756;2023-04-15T09:23:36;7.78;;;3.17;;
63016;SDS011;50274;45.640;11.756;2023-04-15T09:26:03;6.93;;;2.90;;
63016;SDS011;50274;45.640;11.756;2023-04-15T09:28:30;6.93;;;3.42;;
63016;SDS011;50274;45.640;11.756;2023-04-15T09:31:00;6.37;;;2.33;;
63016;SDS011;50274;45.640;11.756;2023-04-15T09:33:27;8.05;;;2.53;;
63016;SDS011;50274;45.640;11.756;2023-04-15T09:35:59;8.30;;;2.50;;
63016;SDS011;50274;45.640;11.756;2023-04-15T09:38:26;7.78;;;3.00;;
63016;SDS011;50274;45.640;11.756;2023-04-15T09:40:54;8.57;;;2.40;;
63016;SDS011;50274;45.640;11.756;2023-04-15T09:43:20;5.83;;;2.70;;
63016;SDS011;50274;45.640;11.756;2023-04-15T09:45:47;6.65;;;2.70;;
63016;SDS011;50274;45.640;11.756;2023-04-15T09:48:22;6.95;;;2.70;;
63016;SDS011;50274;45.640;11.756;2023-04-15T09:50:55;5.15;;;2.20;;
63016;SDS011;50274;45.640;11.756;2023-04-15T09:53:23;7.55;;;2.85;;
63016;SDS011;50274;45.640;11.756;2023-04-15T09:55:53;7.27;;;2.80;;
63016;SDS011;50274;45.640;11.756;2023-04-15T09:58:25;8.43;;;2.70;;
63016;SDS011;50274;45.640;11.756;2023-04-15T10:00:54;6.07;;;2.33;;
63016;SDS011;50274;45.640;11.756;2023-04-15T10:03:22;9.82;;;2.50;;
63016;SDS011;50274;45.640;11.756;2023-04-15T10:05:52;6.95;;;3.13;;
63016;SDS011;50274;45.640;11.756;2023-04-15T10:08:24;4.97;;;2.60;;
63016;SDS011;50274;45.640;11.756;2023-04-15T10:10:52;7.82;;;2.83;;
63016;SDS011;50274;45.640;11.756;2023-04-15T10:13:19;6.22;;;2.28;;
63016;SDS011;50274;45.640;11.756;2023-04-15T10:15:56;6.07;;;2.00;;
63016;SDS011;50274;45.640;11.756;2023-04-15T10:18:23;6.15;;;2.33;;
63016;SDS011;50274;45.640;11.756;2023-04-15T10:20:53;5.07;;;2.00;;
63016;SDS011;50274;45.640;11.756;2023-04-15T10:23:22;8.45;;;2.50;;
63016;SDS011;50274;45.640;11.756;2023-04-15T10:25:51;5.43;;;2.42;;
63016;SDS011;50274;45.640;11.756;2023-04-15T10:28:20;6.70;;;2.90;;
63016;SDS011;50274;45.640;11.756;2023-04-15T10:30:49;8.20;;;3.10;;
63016;SDS011;50274;45.640;11.756;2023-04-15T10:33:19;6.40;;;2.70;;
63016;SDS011;50274;45.640;11.756;2023-04-15T10:35:47;5.70;;;2.50;;
63016;SDS011;50274;45.640;11.756;2023-04-15T10:38:31;5.63;;;2.00;;
63016;SDS011;50274;45.640;11.756;2023-04-15T10:43:52;7.63;;;3.03;;
63016;SDS011;50274;45.640;11.756;2023-04-15T10:46:35;5.23;;;2.30;;
63016;SDS011;50274;45.640;11.756;2023-04-15T10:51:41;9.93;;;2.72;;
63016;SDS011;50274;45.640;11.756;2023-04-15T10:54:15;7.10;;;2.70;;
63016;SDS011;50274;45.640;11.756;2023-04-15T10:59:28;6.17;;;2.83;;
63016;SDS011;50274;45.640;11.756;2023-04-15T11:02:01;6.82;;;2.70;;
63016;SDS011;50274;45.640;11.756;2023-04-15T11:07:34;6.13;;;2.45;;
63016;SDS011;50274;45.640;11.756;2023-04-15T11:10:01;6.47;;;2.60;;
63016;SDS011;50274;45.640;11.756;2023-04-15T11:12:34;4.90;;;2.53;;
63016;SDS011;50274;45.640;11.756;2023-04-15T11:17:56;8.10;;;2.53;;
63016;SDS011;50274;45.640;11.756;2023-04-15T11:20:25;5.75;;;2.25;;
63016;SDS011;50274;45.640;11.756;2023-04-15T11:22:59;6.35;;;2.58;;
63016;SDS011;50274;45.640;11.756;2023-04-15T11:25:25;6.67;;;2.33;;
63016;SDS011;50274;45.640;11.756;2023-04-15T11:27:52;6.85;;;2.13;;
63016;SDS011;50274;45.640;11.756;2023-04-15T11:30:23;6.80;;;2.63;;
63016;SDS011;50274;45.640;11.756;2023-04-15T11:32:50;7.68;;;2.45;;
63016;SDS011;50274;45.640;11.756;2023-04-15T11:35:17;6.38;;;2.17;;
63016;SDS011;50274;45.640;11.756;2023-04-15T11:37:44;6.17;;;2.07;;
63016;SDS011;50274;45.640;11.756;2023-04-15T11:40:10;5.88;;;1.95;;
63016;SDS011;50274;45.640;11.756;2023-04-15T11:42:37;4.80;;;2.00;;
63016;SDS011;50274;45.640;11.756;2023-04-15T11:45:21;5.10;;;1.65;;
63016;SDS011;50274;45.640;11.756;2023-04-15T11:47:46;6.43;;;2.40;;
63016;SDS011;50274;45.640;11.756;2023-04-15T11:50:16;5.40;;;1.70;;
63016;SDS011;50274;45.640;11.756;2023-04-15T11:52:59;7.68;;;1.98;;
63016;SDS011;50274;45.640;11.756;2023-04-15T11:55:27;6.15;;;1.60;;
63016;SDS011;50274;45.640;11.756;2023-04-15T12:00:41;7.93;;;1.73;;
63016;SDS011;50274;45.640;11.756;2023-04-15T12:08:57;4.55;;;1.60;;
63016;SDS011;50274;45.640;11.756;2023-04-15T12:11:45;6.32;;;1.40;;
63016;SDS011;50274;45.640;11.756;2023-04-15T12:16:58;4.05;;;1.40;;
63016;SDS011;50274;45.640;11.756;2023-04-15T12:22:04;5.03;;;1.30;;
63016;SDS011;50274;45.640;11.756;2023-04-15T12:24:35;7.88;;;1.67;;
63016;SDS011;50274;45.640;11.756;2023-04-15T12:27:03;6.33;;;1.83;;
63016;SDS011;50274;45.640;11.756;2023-04-15T12:29:36;5.25;;;1.45;;
63016;SDS011;50274;45.640;11.756;2023-04-15T12:34:43;5.10;;;1.50;;
63016;SDS011;50274;45.640;11.756;2023-04-15T12:37:14;4.38;;;1.67;;
63016;SDS011;50274;45.640;11.756;2023-04-15T12:39:41;4.63;;;1.50;;
63016;SDS011;50274;45.640;11.756;2023-04-15T12:42:08;4.90;;;1.63;;
63016;SDS011;50274;45.640;11.756;2023-04-15T12:44:35;5.00;;;1.45;;
63016;SDS011;50274;45.640;11.756;2023-04-15T12:47:02;5.40;;;1.55;;
63016;SDS011;50274;45.640;11.756;2023-04-15T12:49:29;5.20;;;1.55;;
63016;SDS011;50274;45.640;11.756;2023-04-15T12:51:56;4.47;;;1.50;;
63016;SDS011;50274;45.640;11.756;2023-04-15T12:54:24;5.63;;;1.33;;
63016;SDS011;50274;45.640;11.756;2023-04-15T12:56:51;4.53;;;1.23;;
63016;SDS011;50274;45.640;11.756;2023-04-15T12:59:17;5.13;;;1.33;;
63016;SDS011;50274;45.640;11.756;2023-04-15T13:01:43;4.80;;;1.43;;
63016;SDS011;50274;45.640;11.756;2023-04-15T13:04:31;5.57;;;1.25;;
63016;SDS011;50274;45.640;11.756;2023-04-15T13:06:57;5.88;;;1.33;;
63016;SDS011;50274;45.640;11.756;2023-04-15T13:09:23;3.58;;;1.40;;
63016;SDS011;50274;45.640;11.756;2023-04-15T13:11:49;5.90;;;1.30;;
63016;SDS011;50274;45.640;11.756;2023-04-15T13:14:15;4.45;;;1.20;;
63016;SDS011;50274;45.640;11.756;2023-04-15T13:16:40;3.97;;;1.33;;
63016;SDS011;50274;45.640;11.756;2023-04-15T13:19:06;6.60;;;1.30;;
63016;SDS011;50274;45.640;11.756;2023-04-15T13:21:32;4.78;;;1.42;;
63016;SDS011;50274;45.640;11.756;2023-04-15T13:23:59;3.50;;;0.90;;
63016;SDS011;50274;45.640;11.756;2023-04-15T13:26:25;4.07;;;1.20;;
63016;SDS011;50274;45.640;11.756;2023-04-15T13:28:52;3.93;;;1.17;;
63016;SDS011;50274;45.640;11.756;2023-04-15T13:31:17;4.93;;;1.50;;
63016;SDS011;50274;45.640;11.756;2023-04-15T13:33:43;4.13;;;1.25;;
63016;SDS011;50274;45.640;11.756;2023-04-15T13:36:09;5.00;;;1.20;;
63016;SDS011;50274;45.640;11.756;2023-04-15T13:38:35;4.60;;;1.20;;
63016;SDS011;50274;45.640;11.756;2023-04-15T13:41:01;6.38;;;0.90;;
63016;SDS011;50274;45.640;11.756;2023-04-15T13:43:27;4.87;;;1.10;;
63016;SDS011;50274;45.640;11.756;2023-04-15T13:45:52;4.47;;;1.10;;
63016;SDS011;50274;45.640;11.756;2023-04-15T13:48:18;4.60;;;1.10;;
63016;SDS011;50274;45.640;11.756;2023-04-15T13:50:44;4.55;;;1.10;;
63016;SDS011;50274;45.640;11.756;2023-04-15T13:53:10;4.30;;;1.15;;
63016;SDS011;50274;45.640;11.756;2023-04-15T13:55:37;4.38;;;1.40;;
63016;SDS011;50274;45.640;11.756;2023-04-15T13:58:06;5.93;;;1.00;;
63016;SDS011;50274;45.640;11.756;2023-04-15T14:00:35;3.58;;;1.00;;
63016;SDS011;50274;45.640;11.756;2023-04-15T14:03:01;4.47;;;1.02;;
63016;SDS011;50274;45.640;11.756;2023-04-15T14:05:26;4.30;;;0.90;;
63016;SDS011;50274;45.640;11.756;2023-04-15T14:07:52;5.03;;;0.80;;
63016;SDS011;50274;45.640;11.756;2023-04-15T14:10:18;4.07;;;0.88;;
63016;SDS011;50274;45.640;11.756;2023-04-15T14:12:45;5.10;;;0.80;;
63016;SDS011;50274;45.640;11.756;2023-04-15T14:15:10;4.07;;;0.98;;
63016;SDS011;50274;45.640;11.756;2023-04-15T14:17:36;4.93;;;1.08;;
63016;SDS011;50274;45.640;11.756;2023-04-15T14:20:02;4.80;;;1.20;;
63016;SDS011;50274;45.640;11.756;2023-04-15T14:22:31;5.15;;;1.00;;
63016;SDS011;50274;45.640;11.756;2023-04-15T14:24:56;5.57;;;1.23;;
63016;SDS011;50274;45.640;11.756;2023-04-15T14:27:22;5.87;;;1.77;;
63016;SDS011;50274;45.640;11.756;2023-04-15T14:29:48;5.93;;;0.98;;
63016;SDS011;50274;45.640;11.756;2023-04-15T14:32:14;5.53;;;1.10;;
63016;SDS011;50274;45.640;11.756;2023-04-15T14:34:40;5.00;;;0.68;;
63016;SDS011;50274;45.640;11.756;2023-04-15T14:37:06;4.23;;;0.80;;
63016;SDS011;50274;45.640;11.756;2023-04-15T14:39:32;4.07;;;0.80;;
63016;SDS011;50274;45.640;11.756;2023-04-15T14:42:03;5.05;;;0.70;;
63016;SDS011;50274;45.640;11.756;2023-04-15T14:44:29;3.92;;;0.70;;
63016;SDS011;50274;45.640;11.756;2023-04-15T14:46:55;2.65;;;0.70;;
63016;SDS011;50274;45.640;11.756;2023-04-15T14:49:23;5.53;;;0.60;;
63016;SDS011;50274;45.640;11.756;2023-04-15T14:51:50;5.10;;;0.75;;
63016;SDS011;50274;45.640;11.756;2023-04-15T14:54:18;3.10;;;0.63;;
63016;SDS011;50274;45.640;11.756;2023-04-15T14:56:46;7.43;;;0.77;;
63016;SDS011;50274;45.640;11.756;2023-04-15T14:59:12;6.33;;;1.00;;
63016;SDS011;50274;45.640;11.756;2023-04-15T15:01:41;4.05;;;0.82;;
63016;SDS011;50274;45.640;11.756;2023-04-15T15:04:06;4.68;;;0.93;;